Phoenix, AZ

5:00 AM MST on May 22, 2015 (GMT -0700)
Scottsdale | | Change Station
CLOSE
Current Station
Airport
Location: Scottsdale,
Elevation: 1509 ft
Nearby Weather Stations

Elev 1509 ft 33.62 °N, 111.91 °W | Updated 7 minutes ago

Partly Cloudy
Partly Cloudy
65 °F
Feels Like 65 °F
N
0
Wind Variable Wind from North

Today
High -- | Low -- °F
--% Chance of Precip.
Yesterday
High -- | Low -- °F
Precip. -- in
5:23 AM 7:26 PM
Waxing Crescent, 21% visible
Pressure 29.83 in
Visibility 10.0 miles
Clouds Clear
Dew Point 36 °F
Humidity 34%
Rainfall 0.00 in
Snow Depth Not available.
UV 0 out of 12
Pollen 4.60 out of 12
Air Quality Not available.
Flu Activity Local Activity
METAR KSDL 221153Z 00000KT 10SM CLR 18/02 A2989 RMK AO2 SLP100 T01830022 10228 20183 53001

More Conditions Fewer Conditions

Pressure 29.83 in
Visibility 10.0 miles
Clouds Clear
Dew Point 36 °F
Humidity 34%
Rainfall 0.00 in
Snow Depth Not available.
UV 0 out of 12
Pollen 4.60 out of 12
Air Quality Not available.
Flu Activity Local Activity
METAR KSDL 221153Z 00000KT 10SM CLR 18/02 A2989 RMK AO2 SLP100 T01830022 10228 20183 53001

More Conditions Fewer Conditions

10-Day Weather Forecast

Almanac

Astronomy

May. 22, 2015 Rise Set
Actual Time
Civil Twilight
Nautical Twilight
Astronomical Twilight
Moon
Length of Visible Light
Length of Day
Tomorrow will be .
, % of the Moon is Illuminated

Today's Extremes

State Highs State Lows

Community

WunderPhotos

Upload Photos

1,823,206 photos uploaded!

WunderBlogs® & News

Nearby

Air Quality

  Air Quality AQ Index Pollutant
Not available.

Snow Depth

Station Depth Elevation

Earthquake Activity

City Distance Mag. Time & Date
Minimum magnitude displayed is 2.5.

Coastal Water Temperatures

Place Temperature

Stations

Nearby Weather Stations

Station Location Temp. Windchill Dew Point Humidity Wind Precip. Elev Updated Type